sensor_id;sensor_type;location;lat;lon;timestamp;temperature;humidity
69595;DHT22;56800;52.142;5.364;2023-04-01T00:02:06;10.90;84.70
69595;DHT22;56800;52.142;5.364;2023-04-01T00:04:33;10.90;84.80
69595;DHT22;56800;52.142;5.364;2023-04-01T00:07:00;10.90;84.70
69595;DHT22;56800;52.142;5.364;2023-04-01T00:09:28;10.90;84.60
69595;DHT22;56800;52.142;5.364;2023-04-01T00:11:55;10.90;84.60
69595;DHT22;56800;52.142;5.364;2023-04-01T00:14:22;10.90;84.60
69595;DHT22;56800;52.142;5.364;2023-04-01T00:16:48;10.90;84.60
69595;DHT22;56800;52.142;5.364;2023-04-01T00:19:15;10.90;84.60
69595;DHT22;56800;52.142;5.364;2023-04-01T00:21:42;10.90;84.50
69595;DHT22;56800;52.142;5.364;2023-04-01T00:24:09;10.90;84.60
69595;DHT22;56800;52.142;5.364;2023-04-01T00:26:36;10.90;84.60
69595;DHT22;56800;52.142;5.364;2023-04-01T00:29:02;10.90;84.60
69595;DHT22;56800;52.142;5.364;2023-04-01T00:31:29;10.90;84.60
69595;DHT22;56800;52.142;5.364;2023-04-01T00:33:56;10.90;84.60
69595;DHT22;56800;52.142;5.364;2023-04-01T00:36:24;10.90;84.60
69595;DHT22;56800;52.142;5.364;2023-04-01T00:38:51;10.90;84.50
69595;DHT22;56800;52.142;5.364;2023-04-01T00:41:19;10.90;84.50
69595;DHT22;56800;52.142;5.364;2023-04-01T00:43:50;10.90;84.50
69595;DHT22;56800;52.142;5.364;2023-04-01T00:46:17;10.90;84.50
69595;DHT22;56800;52.142;5.364;2023-04-01T00:48:48;10.90;84.40
69595;DHT22;56800;52.142;5.364;2023-04-01T00:51:27;10.80;84.30
69595;DHT22;56800;52.142;5.364;2023-04-01T00:53:56;10.80;84.30
69595;DHT22;56800;52.142;5.364;2023-04-01T00:56:27;10.80;84.30
69595;DHT22;56800;52.142;5.364;2023-04-01T00:59:04;10.80;84.30
69595;DHT22;56800;52.142;5.364;2023-04-01T01:01:35;10.80;84.30
69595;DHT22;56800;52.142;5.364;2023-04-01T01:04:05;10.80;84.40
69595;DHT22;56800;52.142;5.364;2023-04-01T01:12:15;10.70;84.20
69595;DHT22;56800;52.142;5.364;2023-04-01T01:15:02;10.70;84.20
69595;DHT22;56800;52.142;5.364;2023-04-01T01:26:14;10.80;84.20
69595;DHT22;56800;52.142;5.364;2023-04-01T01:31:57;10.80;84.10
69595;DHT22;56800;52.142;5.364;2023-04-01T01:34:50;10.70;84.00
69595;DHT22;56800;52.142;5.364;2023-04-01T01:37:23;10.70;84.10
69595;DHT22;56800;52.142;5.364;2023-04-01T01:39:58;10.60;84.00
69595;DHT22;56800;52.142;5.364;2023-04-01T01:42:27;10.60;84.00
69595;DHT22;56800;52.142;5.364;2023-04-01T01:44:57;10.60;84.00
69595;DHT22;56800;52.142;5.364;2023-04-01T01:47:26;10.60;84.10
69595;DHT22;56800;52.142;5.364;2023-04-01T01:49:55;10.60;84.10
69595;DHT22;56800;52.142;5.364;2023-04-01T01:52:23;10.60;84.10
69595;DHT22;56800;52.142;5.364;2023-04-01T01:54:52;10.60;84.10
69595;DHT22;56800;52.142;5.364;2023-04-01T01:57:39;10.60;84.10
69595;DHT22;56800;52.142;5.364;2023-04-01T02:00:09;10.50;84.10
69595;DHT22;56800;52.142;5.364;2023-04-01T02:02:41;10.50;84.10
69595;DHT22;56800;52.142;5.364;2023-04-01T02:05:11;10.50;84.10
69595;DHT22;56800;52.142;5.364;2023-04-01T02:07:43;10.50;84.10
69595;DHT22;56800;52.142;5.364;2023-04-01T02:10:10;10.50;84.10
69595;DHT22;56800;52.142;5.364;2023-04-01T02:12:38;10.50;84.10
69595;DHT22;56800;52.142;5.364;2023-04-01T02:15:09;10.50;84.10
69595;DHT22;56800;52.142;5.364;2023-04-01T02:17:40;10.40;84.10
69595;DHT22;56800;52.142;5.364;2023-04-01T02:20:16;10.40;84.00
69595;DHT22;56800;52.142;5.364;2023-04-01T02:22:51;10.40;84.10
69595;DHT22;56800;52.142;5.364;2023-04-01T02:25:30;10.40;84.10
69595;DHT22;56800;52.142;5.364;2023-04-01T02:28:01;10.40;85.00
69595;DHT22;56800;52.142;5.364;2023-04-01T02:30:32;10.40;84.20
69595;DHT22;56800;52.142;5.364;2023-04-01T02:33:00;10.40;84.10
69595;DHT22;56800;52.142;5.364;2023-04-01T02:35:27;10.40;84.20
69595;DHT22;56800;52.142;5.364;2023-04-01T02:37:54;10.40;84.20
69595;DHT22;56800;52.142;5.364;2023-04-01T02:40:22;10.40;84.20
69595;DHT22;56800;52.142;5.364;2023-04-01T02:42:49;10.30;84.10
69595;DHT22;56800;52.142;5.364;2023-04-01T02:45:15;10.30;84.10
69595;DHT22;56800;52.142;5.364;2023-04-01T02:47:42;10.30;84.30
69595;DHT22;56800;52.142;5.364;2023-04-01T02:50:09;10.30;84.20
69595;DHT22;56800;52.142;5.364;2023-04-01T02:52:36;10.30;84.20
69595;DHT22;56800;52.142;5.364;2023-04-01T02:55:05;10.40;84.20
69595;DHT22;56800;52.142;5.364;2023-04-01T02:57:32;10.40;84.20
69595;DHT22;56800;52.142;5.364;2023-04-01T02:59:59;10.40;84.20
69595;DHT22;56800;52.142;5.364;2023-04-01T03:02:26;10.40;84.30
69595;DHT22;56800;52.142;5.364;2023-04-01T03:04:53;10.30;84.20
69595;DHT22;56800;52.142;5.364;2023-04-01T03:07:19;10.30;84.20
69595;DHT22;56800;52.142;5.364;2023-04-01T03:09:46;10.30;84.20
69595;DHT22;56800;52.142;5.364;2023-04-01T03:12:13;10.30;84.20
69595;DHT22;56800;52.142;5.364;2023-04-01T03:14:39;10.30;84.20
69595;DHT22;56800;52.142;5.364;2023-04-01T03:17:06;10.30;84.20
69595;DHT22;56800;52.142;5.364;2023-04-01T03:19:33;10.30;84.20
69595;DHT22;56800;52.142;5.364;2023-04-01T03:21:59;10.30;84.20
69595;DHT22;56800;52.142;5.364;2023-04-01T03:24:26;10.30;84.30
69595;DHT22;56800;52.142;5.364;2023-04-01T03:26:53;10.30;84.30
69595;DHT22;56800;52.142;5.364;2023-04-01T03:29:20;10.30;84.30
69595;DHT22;56800;52.142;5.364;2023-04-01T03:31:46;10.30;84.40
69595;DHT22;56800;52.142;5.364;2023-04-01T03:34:13;10.30;84.50
69595;DHT22;56800;52.142;5.364;2023-04-01T03:36:40;10.30;84.60
69595;DHT22;56800;52.142;5.364;2023-04-01T03:39:07;10.30;84.50
69595;DHT22;56800;52.142;5.364;2023-04-01T03:41:36;10.30;84.60
69595;DHT22;56800;52.142;5.364;2023-04-01T03:44:03;10.30;84.60
69595;DHT22;56800;52.142;5.364;2023-04-01T03:46:30;10.30;84.60
69595;DHT22;56800;52.142;5.364;2023-04-01T03:48:57;10.30;84.70
69595;DHT22;56800;52.142;5.364;2023-04-01T03:51:24;10.30;84.80
69595;DHT22;56800;52.142;5.364;2023-04-01T03:53:50;10.30;84.70
69595;DHT22;56800;52.142;5.364;2023-04-01T03:56:17;10.40;84.80
69595;DHT22;56800;52.142;5.364;2023-04-01T03:58:44;10.40;84.70
69595;DHT22;56800;52.142;5.364;2023-04-01T04:01:19;10.40;84.70
69595;DHT22;56800;52.142;5.364;2023-04-01T04:03:47;10.40;84.70
69595;DHT22;56800;52.142;5.364;2023-04-01T04:06:18;10.40;84.80
69595;DHT22;56800;52.142;5.364;2023-04-01T04:08:45;10.40;84.90
69595;DHT22;56800;52.142;5.364;2023-04-01T04:11:12;10.40;84.90
69595;DHT22;56800;52.142;5.364;2023-04-01T04:13:39;10.40;84.90
69595;DHT22;56800;52.142;5.364;2023-04-01T04:16:06;10.40;84.90
69595;DHT22;56800;52.142;5.364;2023-04-01T04:18:34;10.40;84.90
69595;DHT22;56800;52.142;5.364;2023-04-01T04:21:00;10.40;84.90
69595;DHT22;56800;52.142;5.364;2023-04-01T04:23:27;10.40;84.90
69595;DHT22;56800;52.142;5.364;2023-04-01T04:26:01;10.40;84.90
69595;DHT22;56800;52.142;5.364;2023-04-01T04:28:28;10.40;84.90
69595;DHT22;56800;52.142;5.364;2023-04-01T04:30:55;10.50;84.90
69595;DHT22;56800;52.142;5.364;2023-04-01T04:33:23;10.50;84.90
69595;DHT22;56800;52.142;5.364;2023-04-01T04:35:50;10.50;84.90
69595;DHT22;56800;52.142;5.364;2023-04-01T04:38:17;10.50;85.00
69595;DHT22;56800;52.142;5.364;2023-04-01T04:40:44;10.50;85.00
69595;DHT22;56800;52.142;5.364;2023-04-01T04:43:12;10.50;85.10
69595;DHT22;56800;52.142;5.364;2023-04-01T04:45:39;10.50;85.10
69595;DHT22;56800;52.142;5.364;2023-04-01T04:48:10;10.50;85.20
69595;DHT22;56800;52.142;5.364;2023-04-01T04:50:37;10.50;85.30
69595;DHT22;56800;52.142;5.364;2023-04-01T04:53:06;10.50;85.40
69595;DHT22;56800;52.142;5.364;2023-04-01T04:55:33;10.50;85.40
69595;DHT22;56800;52.142;5.364;2023-04-01T04:58:00;10.50;85.50
69595;DHT22;56800;52.142;5.364;2023-04-01T05:00:26;10.50;85.50
69595;DHT22;56800;52.142;5.364;2023-04-01T05:02:53;10.50;85.60
69595;DHT22;56800;52.142;5.364;2023-04-01T05:05:20;10.50;85.60
69595;DHT22;56800;52.142;5.364;2023-04-01T05:07:46;10.50;85.60
69595;DHT22;56800;52.142;5.364;2023-04-01T05:10:13;10.50;85.60
69595;DHT22;56800;52.142;5.364;2023-04-01T05:12:40;10.50;85.60
69595;DHT22;56800;52.142;5.364;2023-04-01T05:15:07;10.50;85.60
69595;DHT22;56800;52.142;5.364;2023-04-01T05:17:34;10.60;85.70
69595;DHT22;56800;52.142;5.364;2023-04-01T05:20:01;10.60;85.70
69595;DHT22;56800;52.142;5.364;2023-04-01T05:22:29;10.50;85.80
69595;DHT22;56800;52.142;5.364;2023-04-01T05:24:56;10.50;85.70
69595;DHT22;56800;52.142;5.364;2023-04-01T05:27:22;10.50;85.70
69595;DHT22;56800;52.142;5.364;2023-04-01T05:29:49;10.50;85.80
69595;DHT22;56800;52.142;5.364;2023-04-01T05:32:16;10.50;85.80
69595;DHT22;56800;52.142;5.364;2023-04-01T05:34:42;10.50;85.80
69595;DHT22;56800;52.142;5.364;2023-04-01T05:37:09;10.50;85.90
69595;DHT22;56800;52.142;5.364;2023-04-01T05:39:39;10.50;85.90
69595;DHT22;56800;52.142;5.364;2023-04-01T05:42:06;10.50;85.90
69595;DHT22;56800;52.142;5.364;2023-04-01T05:44:34;10.60;86.00
69595;DHT22;56800;52.142;5.364;2023-04-01T05:47:03;10.50;86.00
69595;DHT22;56800;52.142;5.364;2023-04-01T05:49:30;10.50;86.00
69595;DHT22;56800;52.142;5.364;2023-04-01T05:51:57;10.50;86.00
69595;DHT22;56800;52.142;5.364;2023-04-01T05:54:24;10.60;86.10
69595;DHT22;56800;52.142;5.364;2023-04-01T05:56:51;10.60;86.10
69595;DHT22;56800;52.142;5.364;2023-04-01T05:59:17;10.60;86.00
69595;DHT22;56800;52.142;5.364;2023-04-01T06:01:44;10.60;86.00
69595;DHT22;56800;52.142;5.364;2023-04-01T06:04:15;10.60;86.00
69595;DHT22;56800;52.142;5.364;2023-04-01T06:06:43;10.60;86.00
69595;DHT22;56800;52.142;5.364;2023-04-01T06:09:14;10.60;86.00
69595;DHT22;56800;52.142;5.364;2023-04-01T06:14:45;10.60;86.00
69595;DHT22;56800;52.142;5.364;2023-04-01T06:17:26;10.60;86.00
69595;DHT22;56800;52.142;5.364;2023-04-01T06:23:07;10.60;86.00
69595;DHT22;56800;52.142;5.364;2023-04-01T06:26:04;10.60;86.00
69595;DHT22;56800;52.142;5.364;2023-04-01T06:36:49;10.60;86.10
69595;DHT22;56800;52.142;5.364;2023-04-01T06:42:13;10.60;86.20
69595;DHT22;56800;52.142;5.364;2023-04-01T06:47:39;10.60;86.20
69595;DHT22;56800;52.142;5.364;2023-04-01T06:56:00;10.60;86.20
69595;DHT22;56800;52.142;5.364;2023-04-01T06:58:41;10.70;86.30
69595;DHT22;56800;52.142;5.364;2023-04-01T07:01:21;10.70;86.30
69595;DHT22;56800;52.142;5.364;2023-04-01T07:03:59;10.70;86.30
69595;DHT22;56800;52.142;5.364;2023-04-01T07:06:28;10.70;86.30
69595;DHT22;56800;52.142;5.364;2023-04-01T07:09:00;10.70;86.20
69595;DHT22;56800;52.142;5.364;2023-04-01T07:11:35;10.70;86.20
69595;DHT22;56800;52.142;5.364;2023-04-01T07:14:25;10.70;86.20
69595;DHT22;56800;52.142;5.364;2023-04-01T07:17:12;10.80;86.20
69595;DHT22;56800;52.142;5.364;2023-04-01T07:19:50;10.80;86.20
69595;DHT22;56800;52.142;5.364;2023-04-01T07:22:41;10.80;86.10
69595;DHT22;56800;52.142;5.364;2023-04-01T07:25:25;10.80;86.20
69595;DHT22;56800;52.142;5.364;2023-04-01T07:27:55;10.80;86.20
69595;DHT22;56800;52.142;5.364;2023-04-01T07:30:24;10.80;86.20
69595;DHT22;56800;52.142;5.364;2023-04-01T07:33:23;10.90;86.10
69595;DHT22;56800;52.142;5.364;2023-04-01T07:36:20;10.90;86.10
69595;DHT22;56800;52.142;5.364;2023-04-01T07:41:50;10.90;85.90
69595;DHT22;56800;52.142;5.364;2023-04-01T07:44:47;10.90;85.90
69595;DHT22;56800;52.142;5.364;2023-04-01T07:47:34;10.90;85.90
69595;DHT22;56800;52.142;5.364;2023-04-01T07:50:16;10.90;85.90
69595;DHT22;56800;52.142;5.364;2023-04-01T07:56:00;10.90;86.00
69595;DHT22;56800;52.142;5.364;2023-04-01T07:58:35;10.90;86.10
69595;DHT22;56800;52.142;5.364;2023-04-01T08:12:17;10.90;86.00
69595;DHT22;56800;52.142;5.364;2023-04-01T08:17:50;11.00;86.20
69595;DHT22;56800;52.142;5.364;2023-04-01T08:23:18;11.00;86.20
69595;DHT22;56800;52.142;5.364;2023-04-01T08:25:52;11.00;86.20
69595;DHT22;56800;52.142;5.364;2023-04-01T08:31:17;11.10;86.20
69595;DHT22;56800;52.142;5.364;2023-04-01T08:33:46;11.10;86.10
69595;DHT22;56800;52.142;5.364;2023-04-01T08:36:20;11.10;86.20
69595;DHT22;56800;52.142;5.364;2023-04-01T08:38:57;11.10;86.10
69595;DHT22;56800;52.142;5.364;2023-04-01T08:41:50;11.10;86.00
69595;DHT22;56800;52.142;5.364;2023-04-01T08:50:31;11.20;86.10
69595;DHT22;56800;52.142;5.364;2023-04-01T08:53:22;11.20;86.10
69595;DHT22;56800;52.142;5.364;2023-04-01T09:10:30;11.30;86.10
69595;DHT22;56800;52.142;5.364;2023-04-01T09:16:00;11.40;86.20
69595;DHT22;56800;52.142;5.364;2023-04-01T09:18:49;11.50;86.20
69595;DHT22;56800;52.142;5.364;2023-04-01T09:21:42;11.50;86.40
69595;DHT22;56800;52.142;5.364;2023-04-01T09:27:19;11.70;86.40
69595;DHT22;56800;52.142;5.364;2023-04-01T09:35:36;11.80;85.80
69595;DHT22;56800;52.142;5.364;2023-04-01T09:41:29;11.80;85.60
69595;DHT22;56800;52.142;5.364;2023-04-01T09:44:03;11.90;85.90
69595;DHT22;56800;52.142;5.364;2023-04-01T09:55:19;12.10;85.80
69595;DHT22;56800;52.142;5.364;2023-04-01T09:58:19;12.20;85.70
69595;DHT22;56800;52.142;5.364;2023-04-01T10:01:39;12.30;85.90
69595;DHT22;56800;52.142;5.364;2023-04-01T10:04:17;12.30;85.70
69595;DHT22;56800;52.142;5.364;2023-04-01T10:13:09;12.70;85.90
69595;DHT22;56800;52.142;5.364;2023-04-01T10:18:36;12.90;85.70
69595;DHT22;56800;52.142;5.364;2023-04-01T10:27:34;13.20;84.70
69595;DHT22;56800;52.142;5.364;2023-04-01T10:39:29;13.30;83.90
69595;DHT22;56800;52.142;5.364;2023-04-01T10:53:37;13.20;82.90
69595;DHT22;56800;52.142;5.364;2023-04-01T10:58:56;13.20;82.80
69595;DHT22;56800;52.142;5.364;2023-04-01T11:07:12;13.20;82.70
69595;DHT22;56800;52.142;5.364;2023-04-01T11:33:22;13.30;82.20
69595;DHT22;56800;52.142;5.364;2023-04-01T11:35:59;13.30;82.10
69595;DHT22;56800;52.142;5.364;2023-04-01T11:38:57;13.40;82.30
69595;DHT22;56800;52.142;5.364;2023-04-01T11:41:37;13.40;82.30
69595;DHT22;56800;52.142;5.364;2023-04-01T11:47:10;13.40;81.70
69595;DHT22;56800;52.142;5.364;2023-04-01T12:07:09;13.20;80.80
69595;DHT22;56800;52.142;5.364;2023-04-01T12:12:44;13.10;81.30
69595;DHT22;56800;52.142;5.364;2023-04-01T12:20:56;13.10;81.60
69595;DHT22;56800;52.142;5.364;2023-04-01T12:23:54;13.10;81.50
69595;DHT22;56800;52.142;5.364;2023-04-01T12:29:38;13.00;81.60
69595;DHT22;56800;52.142;5.364;2023-04-01T12:32:44;13.00;81.40
69595;DHT22;56800;52.142;5.364;2023-04-01T12:45:51;12.80;81.90
69595;DHT22;56800;52.142;5.364;2023-04-01T12:57:53;12.80;82.20
69595;DHT22;56800;52.142;5.364;2023-04-01T13:00:39;12.70;82.20
69595;DHT22;56800;52.142;5.364;2023-04-01T13:09:24;12.80;82.60
69595;DHT22;56800;52.142;5.364;2023-04-01T13:20:14;12.80;82.30
69595;DHT22;56800;52.142;5.364;2023-04-01T13:22:56;12.70;82.10
69595;DHT22;56800;52.142;5.364;2023-04-01T13:28:18;12.70;82.30
69595;DHT22;56800;52.142;5.364;2023-04-01T13:31:05;12.60;82.20
69595;DHT22;56800;52.142;5.364;2023-04-01T13:36:17;12.60;82.10
69595;DHT22;56800;52.142;5.364;2023-04-01T13:39:15;12.50;82.20
69595;DHT22;56800;52.142;5.364;2023-04-01T13:44:34;12.50;82.50
69595;DHT22;56800;52.142;5.364;2023-04-01T13:55:30;12.30;82.40
69595;DHT22;56800;52.142;5.364;2023-04-01T14:01:05;12.30;82.60
69595;DHT22;56800;52.142;5.364;2023-04-01T14:06:34;12.30;82.80
69595;DHT22;56800;52.142;5.364;2023-04-01T14:30:51;12.30;83.00
69595;DHT22;56800;52.142;5.364;2023-04-01T14:33:37;12.30;83.00
69595;DHT22;56800;52.142;5.364;2023-04-01T14:36:35;12.30;83.20
69595;DHT22;56800;52.142;5.364;2023-04-01T14:42:13;12.30;82.90
69595;DHT22;56800;52.142;5.364;2023-04-01T14:50:55;12.20;82.90
69595;DHT22;56800;52.142;5.364;2023-04-01T14:55:54;12.20;82.60
69595;DHT22;56800;52.142;5.364;2023-04-01T14:58:40;12.10;82.70
69595;DHT22;56800;52.142;5.364;2023-04-01T15:09:42;12.00;82.80
69595;DHT22;56800;52.142;5.364;2023-04-01T15:12:26;12.00;82.90
69595;DHT22;56800;52.142;5.364;2023-04-01T15:15:16;12.00;82.90
69595;DHT22;56800;52.142;5.364;2023-04-01T15:18:04;12.00;82.80
69595;DHT22;56800;52.142;5.364;2023-04-01T15:20:56;11.90;82.80
69595;DHT22;56800;52.142;5.364;2023-04-01T15:23:37;12.00;83.00
69595;DHT22;56800;52.142;5.364;2023-04-01T15:29:28;11.90;82.90
69595;DHT22;56800;52.142;5.364;2023-04-01T15:34:39;11.90;82.90
69595;DHT22;56800;52.142;5.364;2023-04-01T15:37:37;12.00;83.00
69595;DHT22;56800;52.142;5.364;2023-04-01T15:40:20;11.90;82.90
69595;DHT22;56800;52.142;5.364;2023-04-01T15:46:08;11.90;82.90
69595;DHT22;56800;52.142;5.364;2023-04-01T15:51:42;11.90;82.80
69595;DHT22;56800;52.142;5.364;2023-04-01T15:54:24;11.90;82.80
69595;DHT22;56800;52.142;5.364;2023-04-01T16:06:09;11.80;82.70
69595;DHT22;56800;52.142;5.364;2023-04-01T16:11:25;11.80;82.60
69595;DHT22;56800;52.142;5.364;2023-04-01T16:14:44;11.70;82.60
69595;DHT22;56800;52.142;5.364;2023-04-01T16:24:00;11.60;82.60
69595;DHT22;56800;52.142;5.364;2023-04-01T16:28:53;11.60;82.60
69595;DHT22;56800;52.142;5.364;2023-04-01T16:31:41;11.50;82.70
69595;DHT22;56800;52.142;5.364;2023-04-01T16:34:55;11.50;82.60
69595;DHT22;56800;52.142;5.364;2023-04-01T16:37:20;11.50;82.60
69595;DHT22;56800;52.142;5.364;2023-04-01T16:43:11;11.40;82.70
69595;DHT22;56800;52.142;5.364;2023-04-01T16:51:57;11.40;82.80
69595;DHT22;56800;52.142;5.364;2023-04-01T16:54:55;11.30;82.60
69595;DHT22;56800;52.142;5.364;2023-04-01T16:57:37;11.20;82.50
69595;DHT22;56800;52.142;5.364;2023-04-01T17:00:30;11.20;82.60
69595;DHT22;56800;52.142;5.364;2023-04-01T17:03:20;11.20;82.50
69595;DHT22;56800;52.142;5.364;2023-04-01T17:11:44;11.10;82.60
69595;DHT22;56800;52.142;5.364;2023-04-01T17:19:55;11.00;82.40
69595;DHT22;56800;52.142;5.364;2023-04-01T17:22:59;10.90;82.40
69595;DHT22;56800;52.142;5.364;2023-04-01T17:25:55;10.90;82.50
69595;DHT22;56800;52.142;5.364;2023-04-01T17:31:36;10.80;82.50
69595;DHT22;56800;52.142;5.364;2023-04-01T17:34:41;10.70;82.50
69595;DHT22;56800;52.142;5.364;2023-04-01T17:45:33;10.60;82.50
69595;DHT22;56800;52.142;5.364;2023-04-01T17:48:18;10.60;82.70
69595;DHT22;56800;52.142;5.364;2023-04-01T17:51:08;10.60;82.70
69595;DHT22;56800;52.142;5.364;2023-04-01T18:05:20;10.50;82.60
69595;DHT22;56800;52.142;5.364;2023-04-01T18:08:37;10.40;82.60
69595;DHT22;56800;52.142;5.364;2023-04-01T18:19:33;10.30;82.50
69595;DHT22;56800;52.142;5.364;2023-04-01T18:22:33;10.30;82.60
69595;DHT22;56800;52.142;5.364;2023-04-01T18:25:28;10.30;82.60
69595;DHT22;56800;52.142;5.364;2023-04-01T18:36:19;10.20;82.50
69595;DHT22;56800;52.142;5.364;2023-04-01T18:38:56;10.20;82.70
69595;DHT22;56800;52.142;5.364;2023-04-01T18:44:52;10.20;82.70
69595;DHT22;56800;52.142;5.364;2023-04-01T18:52:42;10.10;82.60
69595;DHT22;56800;52.142;5.364;2023-04-01T18:55:33;10.10;82.70
69595;DHT22;56800;52.142;5.364;2023-04-01T19:01:11;10.00;82.80
69595;DHT22;56800;52.142;5.364;2023-04-01T19:04:03;10.00;82.80
69595;DHT22;56800;52.142;5.364;2023-04-01T19:06:53;10.00;82.70
69595;DHT22;56800;52.142;5.364;2023-04-01T19:09:26;10.00;82.80
69595;DHT22;56800;52.142;5.364;2023-04-01T19:15:10;10.00;82.80
69595;DHT22;56800;52.142;5.364;2023-04-01T19:18:02;10.00;82.80
69595;DHT22;56800;52.142;5.364;2023-04-01T19:20:41;10.00;82.80
69595;DHT22;56800;52.142;5.364;2023-04-01T19:25:57;9.90;82.60
69595;DHT22;56800;52.142;5.364;2023-04-01T19:30:58;9.90;82.80
69595;DHT22;56800;52.142;5.364;2023-04-01T19:33:45;9.90;82.80
69595;DHT22;56800;52.142;5.364;2023-04-01T19:36:31;9.90;83.00
69595;DHT22;56800;52.142;5.364;2023-04-01T19:39:23;9.80;82.90
69595;DHT22;56800;52.142;5.364;2023-04-01T19:42:05;9.90;82.90
69595;DHT22;56800;52.142;5.364;2023-04-01T19:44:57;9.80;82.80
69595;DHT22;56800;52.142;5.364;2023-04-01T19:47:41;9.80;82.60
69595;DHT22;56800;52.142;5.364;2023-04-01T19:52:50;9.70;82.70
69595;DHT22;56800;52.142;5.364;2023-04-01T19:55:41;9.70;82.70
69595;DHT22;56800;52.142;5.364;2023-04-01T20:01:00;9.70;82.50
69595;DHT22;56800;52.142;5.364;2023-04-01T20:09:40;9.60;82.50
69595;DHT22;56800;52.142;5.364;2023-04-01T20:12:21;9.50;82.40
69595;DHT22;56800;52.142;5.364;2023-04-01T20:14:53;9.50;82.30
69595;DHT22;56800;52.142;5.364;2023-04-01T20:17:32;9.40;82.20
69595;DHT22;56800;52.142;5.364;2023-04-01T20:25:20;9.30;82.50
69595;DHT22;56800;52.142;5.364;2023-04-01T20:30:37;9.30;82.50
69595;DHT22;56800;52.142;5.364;2023-04-01T20:36:31;9.30;82.50
69595;DHT22;56800;52.142;5.364;2023-04-01T20:39:33;9.30;82.40
69595;DHT22;56800;52.142;5.364;2023-04-01T20:42:12;9.30;82.40
69595;DHT22;56800;52.142;5.364;2023-04-01T20:53:20;9.20;82.30
69595;DHT22;56800;52.142;5.364;2023-04-01T20:58:58;9.10;82.10
69595;DHT22;56800;52.142;5.364;2023-04-01T21:07:47;9.10;82.10
69595;DHT22;56800;52.142;5.364;2023-04-01T21:10:37;9.00;82.00
69595;DHT22;56800;52.142;5.364;2023-04-01T21:16:38;8.90;82.00
69595;DHT22;56800;52.142;5.364;2023-04-01T21:25:21;8.90;82.20
69595;DHT22;56800;52.142;5.364;2023-04-01T21:42:21;8.80;82.30
69595;DHT22;56800;52.142;5.364;2023-04-01T22:04:38;8.60;82.20
69595;DHT22;56800;52.142;5.364;2023-04-01T22:07:22;8.60;82.20
69595;DHT22;56800;52.142;5.364;2023-04-01T22:13:09;8.50;82.20
69595;DHT22;56800;52.142;5.364;2023-04-01T22:24:26;8.50;82.10
69595;DHT22;56800;52.142;5.364;2023-04-01T22:27:17;8.40;82.20
69595;DHT22;56800;52.142;5.364;2023-04-01T22:29:51;8.40;82.20
69595;DHT22;56800;52.142;5.364;2023-04-01T22:32:39;8.40;82.10
69595;DHT22;56800;52.142;5.364;2023-04-01T22:40:45;8.30;82.10
69595;DHT22;56800;52.142;5.364;2023-04-01T22:43:22;8.30;82.20
69595;DHT22;56800;52.142;5.364;2023-04-01T22:49:17;8.20;82.20
69595;DHT22;56800;52.142;5.364;2023-04-01T22:51:54;8.20;82.20
69595;DHT22;56800;52.142;5.364;2023-04-01T22:54:42;8.20;82.20
69595;DHT22;56800;52.142;5.364;2023-04-01T22:57:31;8.20;82.30
69595;DHT22;56800;52.142;5.364;2023-04-01T23:02:38;8.10;82.30
69595;DHT22;56800;52.142;5.364;2023-04-01T23:05:11;8.10;82.40
69595;DHT22;56800;52.142;5.364;2023-04-01T23:12:55;8.10;82.20
69595;DHT22;56800;52.142;5.364;2023-04-01T23:15:23;8.10;82.30
69595;DHT22;56800;52.142;5.364;2023-04-01T23:18:15;8.00;82.30
69595;DHT22;56800;52.142;5.364;2023-04-01T23:20:59;8.00;82.20
69595;DHT22;56800;52.142;5.364;2023-04-01T23:23:39;8.00;82.20
69595;DHT22;56800;52.142;5.364;2023-04-01T23:26:17;8.00;82.20
69595;DHT22;56800;52.142;5.364;2023-04-01T23:28:53;8.00;82.20
69595;DHT22;56800;52.142;5.364;2023-04-01T23:31:30;8.00;82.10
69595;DHT22;56800;52.142;5.364;2023-04-01T23:34:22;8.00;82.20
69595;DHT22;56800;52.142;5.364;2023-04-01T23:36:55;7.90;82.10
69595;DHT22;56800;52.142;5.364;2023-04-01T23:41:55;8.00;82.30
69595;DHT22;56800;52.142;5.364;2023-04-01T23:44:24;8.00;82.40
69595;DHT22;56800;52.142;5.364;2023-04-01T23:46:52;7.90;82.20
69595;DHT22;56800;52.142;5.364;2023-04-01T23:49:33;7.90;82.10
69595;DHT22;56800;52.142;5.364;2023-04-01T23:52:21;7.90;82.80
69595;DHT22;56800;52.142;5.364;2023-04-01T23:55:13;7.90;82.00
69595;DHT22;56800;52.142;5.364;2023-04-01T23:57:41;7.90;82.00
